No1 Tokuyama — JK5318 — position and weather

sailwx.info

Track history (hours):
 
Tides and Currents Weather Stations Pressure Air Temp Water Temp Dewpoint Dewpoint Depression Visibility Wind Speed Wind Dir Waves Ship Positions

No1 Tokuyama

Last reported at 2014-Oct-30 08:30 UTC. Time now 2014-Oct-31 17:57 UTC.
Position N 34°02' E 130°41'.

Length 110 m; draft 5.4 m.

Type: Cargo ship. MMSI: 431400487.

Date/timePositionNaut miles runAvg speedWind from/ knotsBaromVisibWave heightAir tempDewpointWater temp
2014-Oct-30 08:30N 34°02' E 130°41'1614.1
2014-Oct-30 07:23N 33°55' E 130°23'1213.9
2014-Oct-30 06:33N 33°45' E 130°17'10 9.7
2014-Oct-30 05:33N 33°37' E 130°24'0 0.0
2014-Oct-30 04:32N 33°37' E 130°24'0 0.0
2014-Oct-30 03:32N 33°37' E 130°24'0 0.0
2014-Oct-30 02:32N 33°37' E 130°24'0 0.0
2014-Oct-30 01:32N 33°37' E 130°24'0 0.1
2014-Oct-30 00:32N 33°37' E 130°24'0 0.0
2014-Oct-29 23:32N 33°37' E 130°24'1 1.3
2014-Oct-29 22:33N 33°37' E 130°23'2 2.2
2014-Oct-29 21:30N 33°38' E 130°20'0 0.0
2014-Oct-29 20:21N 33°38' E 130°20'0 0.0
2014-Oct-29 19:27N 33°38' E 130°20'0 0.0
2014-Oct-29 18:33N 33°38' E 130°20'0 0.0
2014-Oct-29 17:33N 33°38' E 130°20'3 2.6
2014-Oct-29 16:33N 33°39' E 130°17'1111.0
2014-Oct-29 15:32N 33°41' E 130°04'1413.7
2014-Oct-29 14:33N 33°37' E 129°48'4 0.1
2014-Oct-28 02:30N 33°40' E 129°51'1812.9
2014-Oct-28 01:07N 33°49' E 130°10'1113.3
2014-Oct-28 00:19N 33°55' E 130°21'  
2014-Oct-24 09:10N 35°04' E 139°37'813.3
2014-Oct-24 08:33N 35°10' E 139°44'1212.0
2014-Oct-24 07:33N 35°22' E 139°42'8 8.4
2014-Oct-24 06:34N 35°30' E 139°45'1 0.5
2014-Oct-24 05:31N 35°30' E 139°44'0 0.0
2014-Oct-24 04:34N 35°30' E 139°44'0 0.0
2014-Oct-24 03:31N 35°30' E 139°44'0 0.0
2014-Oct-24 02:31N 35°30' E 139°44'0 0.0
2014-Oct-24 01:31N 35°30' E 139°44'0 0.0
2014-Oct-24 00:31N 35°30' E 139°44'0 0.0
2014-Oct-23 23:31N 35°30' E 139°44'0 0.0
2014-Oct-23 22:31N 35°30' E 139°44'0 0.0
2014-Oct-23 21:31N 35°30' E 139°44'0 0.0
2014-Oct-23 20:31N 35°30' E 139°44'0 0.0
2014-Oct-23 19:31N 35°30' E 139°44'0 0.0
2014-Oct-23 18:31N 35°30' E 139°44'0 0.0
2014-Oct-23 17:31N 35°30' E 139°44'0 0.0
2014-Oct-23 16:31N 35°30' E 139°44'0 0.0
2014-Oct-23 15:28N 35°30' E 139°44'0 0.0
2014-Oct-23 14:31N 35°30' E 139°44'0 0.0
2014-Oct-23 13:31N 35°30' E 139°44'0 0.0
2014-Oct-23 12:31N 35°30' E 139°44'0 0.0
2014-Oct-23 11:31N 35°30' E 139°44'0 0.0
2014-Oct-23 10:31N 35°30' E 139°44'0 0.0
2014-Oct-23 09:31N 35°30' E 139°44'0 0.0
2014-Oct-23 08:31N 35°30' E 139°44'3 3.4
2014-Oct-23 07:33N 35°27' E 139°44'6 6.0
2014-Oct-23 06:31N 35°22' E 139°49'0 0.0
2014-Oct-23 05:25N 35°22' E 139°49'0 0.0
2014-Oct-23 04:31N 35°22' E 139°49'0 0.0
2014-Oct-23 03:31N 35°22' E 139°49'0 0.0
2014-Oct-23 02:28N 35°22' E 139°49'0 0.0
2014-Oct-23 01:31N 35°22' E 139°49'0 0.0
2014-Oct-23 00:31N 35°22' E 139°49'1 1.3
2014-Oct-22 23:34N 35°22' E 139°51'0 0.0
2014-Oct-22 22:31N 35°22' E 139°51'0 0.0
2014-Oct-22 21:31N 35°22' E 139°51'0 0.0
2014-Oct-22 20:31N 35°22' E 139°51'0 0.0
2014-Oct-22 19:31N 35°22' E 139°51'0 0.0
2014-Oct-22 18:28N 35°22' E 139°51'0 0.0
2014-Oct-22 17:31N 35°22' E 139°51'0 0.0
2014-Oct-22 16:31N 35°22' E 139°51'0 0.0
2014-Oct-22 15:31N 35°22' E 139°51'0 0.0
2014-Oct-22 14:31N 35°22' E 139°51'0 0.0
2014-Oct-22 13:31N 35°22' E 139°51'0 0.0
2014-Oct-22 12:31N 35°22' E 139°51'0 0.0
2014-Oct-22 11:31N 35°22' E 139°51'0 0.0
2014-Oct-22 10:28N 35°22' E 139°51'0 0.1
2014-Oct-22 09:31N 35°22' E 139°51'1 1.5
2014-Oct-22 08:33N 35°23' E 139°49'7 6.9
2014-Oct-22 07:31N 35°26' E 139°41'0 0.0
2014-Oct-22 06:31N 35°26' E 139°41'0 0.0
2014-Oct-22 05:31N 35°26' E 139°41'0 0.0
2014-Oct-22 04:31N 35°26' E 139°41'0 0.0
2014-Oct-22 03:31N 35°26' E 139°41'0 0.0
2014-Oct-22 02:31N 35°26' E 139°41'0 0.0
2014-Oct-22 01:31N 35°26' E 139°41'0 0.0
2014-Oct-22 00:31N 35°26' E 139°41'0 0.0
2014-Oct-21 23:31N 35°26' E 139°41'0 0.0
2014-Oct-21 22:31N 35°26' E 139°41'0 0.0
2014-Oct-21 21:31N 35°26' E 139°41'0 0.0
2014-Oct-21 20:31N 35°26' E 139°41'0 0.0
2014-Oct-21 19:31N 35°26' E 139°41'0 0.0
2014-Oct-21 18:31N 35°26' E 139°41'0 0.0
2014-Oct-21 17:31N 35°26' E 139°41'0 0.0
2014-Oct-21 16:31N 35°26' E 139°41'0 0.0
2014-Oct-21 15:31N 35°26' E 139°41'0 0.0
2014-Oct-21 14:31N 35°26' E 139°41'0 0.4
2014-Oct-21 13:33N 35°25' E 139°41'1110.8
2014-Oct-21 12:33N 35°15' E 139°47'25610.2
2014-Oct-20 11:28N 34°05' E 134°48'  
Track history (hours):
 
Tides and Currents Weather Stations Pressure Air Temp Water Temp Dewpoint Dewpoint Depression Visibility Wind Speed Wind Dir Waves Ship Positions

No1 Tokuyama

Last reported at 2014-Oct-30 08:30 UTC. Time now 2014-Oct-31 17:57 UTC.
Position N 34°02' E 130°41'.

Length 110 m; draft 5.4 m.

Type: Cargo ship. MMSI: 431400487.

Date/timePositionNaut miles runAvg speedWind from/ knotsBaromVisibWave heightAir tempDewpointWater temp
2014-Oct-30 08:30N 34°02' E 130°41'1614.1
2014-Oct-30 07:23N 33°55' E 130°23'1213.9
2014-Oct-30 06:33N 33°45' E 130°17'10 9.7
2014-Oct-30 05:33N 33°37' E 130°24'0 0.0
2014-Oct-30 04:32N 33°37' E 130°24'0 0.0
2014-Oct-30 03:32N 33°37' E 130°24'0 0.0
2014-Oct-30 02:32N 33°37' E 130°24'0 0.0
2014-Oct-30 01:32N 33°37' E 130°24'0 0.1
2014-Oct-30 00:32N 33°37' E 130°24'0 0.0
2014-Oct-29 23:32N 33°37' E 130°24'1 1.3
2014-Oct-29 22:33N 33°37' E 130°23'2 2.2
2014-Oct-29 21:30N 33°38' E 130°20'0 0.0
2014-Oct-29 20:21N 33°38' E 130°20'0 0.0
2014-Oct-29 19:27N 33°38' E 130°20'0 0.0
2014-Oct-29 18:33N 33°38' E 130°20'0 0.0
2014-Oct-29 17:33N 33°38' E 130°20'3 2.6
2014-Oct-29 16:33N 33°39' E 130°17'1111.0
2014-Oct-29 15:32N 33°41' E 130°04'1413.7
2014-Oct-29 14:33N 33°37' E 129°48'4 0.1
2014-Oct-28 02:30N 33°40' E 129°51'1812.9
2014-Oct-28 01:07N 33°49' E 130°10'1113.3
2014-Oct-28 00:19N 33°55' E 130°21'  
2014-Oct-24 09:10N 35°04' E 139°37'813.3
2014-Oct-24 08:33N 35°10' E 139°44'1212.0
2014-Oct-24 07:33N 35°22' E 139°42'8 8.4
2014-Oct-24 06:34N 35°30' E 139°45'1 0.5
2014-Oct-24 05:31N 35°30' E 139°44'0 0.0
2014-Oct-24 04:34N 35°30' E 139°44'0 0.0
2014-Oct-24 03:31N 35°30' E 139°44'0 0.0
2014-Oct-24 02:31N 35°30' E 139°44'0 0.0
2014-Oct-24 01:31N 35°30' E 139°44'0 0.0
2014-Oct-24 00:31N 35°30' E 139°44'0 0.0
2014-Oct-23 23:31N 35°30' E 139°44'0 0.0
2014-Oct-23 22:31N 35°30' E 139°44'0 0.0
2014-Oct-23 21:31N 35°30' E 139°44'0 0.0
2014-Oct-23 20:31N 35°30' E 139°44'0 0.0
2014-Oct-23 19:31N 35°30' E 139°44'0 0.0
2014-Oct-23 18:31N 35°30' E 139°44'0 0.0
2014-Oct-23 17:31N 35°30' E 139°44'0 0.0
2014-Oct-23 16:31N 35°30' E 139°44'0 0.0
2014-Oct-23 15:28N 35°30' E 139°44'0 0.0
2014-Oct-23 14:31N 35°30' E 139°44'0 0.0
2014-Oct-23 13:31N 35°30' E 139°44'0 0.0
2014-Oct-23 12:31N 35°30' E 139°44'0 0.0
2014-Oct-23 11:31N 35°30' E 139°44'0 0.0
2014-Oct-23 10:31N 35°30' E 139°44'0 0.0
2014-Oct-23 09:31N 35°30' E 139°44'0 0.0
2014-Oct-23 08:31N 35°30' E 139°44'3 3.4
2014-Oct-23 07:33N 35°27' E 139°44'6 6.0
2014-Oct-23 06:31N 35°22' E 139°49'0 0.0
2014-Oct-23 05:25N 35°22' E 139°49'0 0.0
2014-Oct-23 04:31N 35°22' E 139°49'0 0.0
2014-Oct-23 03:31N 35°22' E 139°49'0 0.0
2014-Oct-23 02:28N 35°22' E 139°49'0 0.0
2014-Oct-23 01:31N 35°22' E 139°49'0 0.0
2014-Oct-23 00:31N 35°22' E 139°49'1 1.3
2014-Oct-22 23:34N 35°22' E 139°51'0 0.0
2014-Oct-22 22:31N 35°22' E 139°51'0 0.0
2014-Oct-22 21:31N 35°22' E 139°51'0 0.0
2014-Oct-22 20:31N 35°22' E 139°51'0 0.0
2014-Oct-22 19:31N 35°22' E 139°51'0 0.0
2014-Oct-22 18:28N 35°22' E 139°51'0 0.0
2014-Oct-22 17:31N 35°22' E 139°51'0 0.0
2014-Oct-22 16:31N 35°22' E 139°51'0 0.0
2014-Oct-22 15:31N 35°22' E 139°51'0 0.0
2014-Oct-22 14:31N 35°22' E 139°51'0 0.0
2014-Oct-22 13:31N 35°22' E 139°51'0 0.0
2014-Oct-22 12:31N 35°22' E 139°51'0 0.0
2014-Oct-22 11:31N 35°22' E 139°51'0 0.0
2014-Oct-22 10:28N 35°22' E 139°51'0 0.1
2014-Oct-22 09:31N 35°22' E 139°51'1 1.5
2014-Oct-22 08:33N 35°23' E 139°49'7 6.9
2014-Oct-22 07:31N 35°26' E 139°41'0 0.0
2014-Oct-22 06:31N 35°26' E 139°41'0 0.0
2014-Oct-22 05:31N 35°26' E 139°41'0 0.0
2014-Oct-22 04:31N 35°26' E 139°41'0 0.0
2014-Oct-22 03:31N 35°26' E 139°41'0 0.0
2014-Oct-22 02:31N 35°26' E 139°41'0 0.0
2014-Oct-22 01:31N 35°26' E 139°41'0 0.0
2014-Oct-22 00:31N 35°26' E 139°41'0 0.0
2014-Oct-21 23:31N 35°26' E 139°41'0 0.0
2014-Oct-21 22:31N 35°26' E 139°41'0 0.0
2014-Oct-21 21:31N 35°26' E 139°41'0 0.0
2014-Oct-21 20:31N 35°26' E 139°41'0 0.0
2014-Oct-21 19:31N 35°26' E 139°41'0 0.0
2014-Oct-21 18:31N 35°26' E 139°41'0 0.0
2014-Oct-21 17:31N 35°26' E 139°41'0 0.0
2014-Oct-21 16:31N 35°26' E 139°41'0 0.0
2014-Oct-21 15:31N 35°26' E 139°41'0 0.0
2014-Oct-21 14:31N 35°26' E 139°41'0 0.4
2014-Oct-21 13:33N 35°25' E 139°41'1110.8
2014-Oct-21 12:33N 35°15' E 139°47'25610.2
2014-Oct-20 11:28N 34°05' E 134°48'  

Dump ship's entire track history